Powell, Nebraska
Current Conditions -  °F | °C
As of 1:15 AM on Friday 31 Oct 2014 (Local Time) from KHJH Reporting Station
Overcast Overcast  
Wind Chill: 35°   Ceiling: 2300
Heat Index: 42°   Visibility: 10mi
Dew Point: 33°   Wind: 13mph
Humidity: 69%   Direction: 350°N
Pressure: 30.4"   Gusts: 16mph
Location:  40.1696°N, 97.2152°W
Report Text: KHJH 310615Z AUTO 35011G14KT 10SM OVC023 06/01 A3040 RMK AO2 T00570005
Loading
Personal Weather Stations






























Interactive Weather Map
Tropical Storm Tracking
New forecast layout! Learn more

10-Day Weather Forecast

Advertisements
Track Severe Weather on mobile